Terminal Aerodrome Forecast
Issued by NWS

Home | Current Version | Previous Version | Text Only | Print | Product List | Glossary On
Versions: 1 2 3 4 5 6 7 8 9 10 11 12 13
866
FTUS42 KTAE 080530
TAFECP
TAF
KECP 080530Z 0806/0906 26006KT P6SM SKC
     FM081500 27020G30KT P6SM BKN040
     FM090000 30014G20KT P6SM FEW040=

USA.gov is the U.S. government's official web portal to all federal, state and local government web resources and services.